Time,TemperatureF,DewpointF,PressureIn,WindDirection,WindDirectionDegrees,WindSpeedMPH,WindSpeedGustMPH,Humidity,HourlyPrecipIn,Conditions,Clouds,dailyrainin,SoftwareType,DateUTC
2013-07-13 00:01:00,79.0,65.0,29.61,NE,39,0.0,2.0,63,0.00,,,0.00,,2013-07-13 05:01:00,
2013-07-13 00:11:00,79.0,63.0,29.61,North,355,1.0,4.0,59,0.00,,,0.00,,2013-07-13 05:11:00,
2013-07-13 00:22:00,80.0,62.0,29.61,NNW,340,3.0,6.0,54,0.00,,,0.00,,2013-07-13 05:22:00,
2013-07-13 00:32:00,80.0,62.0,29.61,NNW,340,3.0,6.0,54,0.00,,,0.00,,2013-07-13 05:32:00,
2013-07-13 00:42:00,81.0,62.0,29.61,WNW,290,0.0,5.0,53,0.00,,,0.00,,2013-07-13 05:42:00,
2013-07-13 00:52:00,81.0,61.0,29.62,NNW,343,2.0,8.0,51,0.00,,,0.00,,2013-07-13 05:52:00,
2013-07-13 01:01:00,81.0,61.0,29.62,NNW,343,2.0,8.0,51,0.00,,,0.00,,2013-07-13 06:01:00,
2013-07-13 01:11:00,82.0,61.0,29.62,NNW,331,1.0,6.0,50,0.00,,,0.00,,2013-07-13 06:11:00,
2013-07-13 01:22:00,83.0,62.0,29.62,SW,225,1.0,11.0,49,0.00,,,0.00,,2013-07-13 06:22:00,
2013-07-13 01:32:00,83.0,62.0,29.62,SW,225,1.0,11.0,49,0.00,,,0.00,,2013-07-13 06:32:00,
2013-07-13 01:43:00,82.0,61.0,29.63,SW,220,1.0,6.0,49,0.00,,,0.00,,2013-07-13 06:43:00,
2013-07-13 01:52:00,82.0,62.0,29.64,SW,229,0.0,3.0,51,0.00,,,0.00,,2013-07-13 06:52:00,
2013-07-13 02:02:00,82.0,62.0,29.64,SW,229,0.0,3.0,51,0.00,,,0.00,,2013-07-13 07:02:00,
2013-07-13 02:11:00,82.0,61.0,29.65,South,186,0.0,6.0,50,0.00,,,0.00,,2013-07-13 07:11:00,
2013-07-13 02:22:00,81.0,61.0,29.66,SSW,203,0.0,4.0,51,0.00,,,0.00,,2013-07-13 07:22:00,
2013-07-13 02:33:00,81.0,61.0,29.66,SSW,203,0.0,4.0,51,0.00,,,0.00,,2013-07-13 07:33:00,
2013-07-13 02:44:00,81.0,62.0,29.65,NW,307,0.0,2.0,52,0.00,,,0.00,,2013-07-13 07:44:00,
2013-07-13 02:53:00,80.0,61.0,29.65,SW,224,0.0,5.0,53,0.00,,,0.00,,2013-07-13 07:53:00,
2013-07-13 03:01:00,80.0,61.0,29.65,SW,224,0.0,5.0,53,0.00,,,0.00,,2013-07-13 08:01:00,
2013-07-13 03:11:00,79.0,60.0,29.67,SSW,193,1.0,4.0,53,0.00,,,0.00,,2013-07-13 08:11:00,
2013-07-13 03:22:00,79.0,61.0,29.67,SSW,193,0.0,0.0,54,0.00,,,0.00,,2013-07-13 08:22:00,
2013-07-13 03:33:00,79.0,61.0,29.67,SSW,193,0.0,0.0,54,0.00,,,0.00,,2013-07-13 08:33:00,
2013-07-13 03:43:00,78.0,62.0,29.66,SSW,193,0.0,2.0,57,0.00,,,0.00,,2013-07-13 08:43:00,
2013-07-13 03:52:00,77.0,61.0,29.67,SSW,193,0.0,1.0,58,0.00,,,0.00,,2013-07-13 08:52:00,
2013-07-13 04:02:00,77.0,61.0,29.67,SSW,193,0.0,1.0,58,0.00,,,0.00,,2013-07-13 09:02:00,
2013-07-13 04:11:00,76.0,61.0,29.67,SSW,193,0.0,0.0,59,0.00,,,0.00,,2013-07-13 09:11:00,
2013-07-13 04:22:00,76.0,61.0,29.67,NNW,338,2.0,5.0,60,0.00,,,0.00,,2013-07-13 09:22:00,
2013-07-13 04:33:00,76.0,61.0,29.67,NNW,338,2.0,5.0,60,0.00,,,0.00,,2013-07-13 09:33:00,
2013-07-13 04:43:00,75.0,62.0,29.67,North,350,0.0,6.0,63,0.00,,,0.00,,2013-07-13 09:43:00,
2013-07-13 04:53:00,74.0,62.0,29.66,NW,323,1.0,5.0,67,0.00,,,0.00,,2013-07-13 09:53:00,
2013-07-13 05:01:00,74.0,62.0,29.66,NW,323,1.0,5.0,67,0.00,,,0.00,,2013-07-13 10:01:00,
2013-07-13 05:11:00,74.0,63.0,29.66,NW,316,1.0,4.0,68,0.00,,,0.00,,2013-07-13 10:11:00,
2013-07-13 05:22:00,73.0,63.0,29.65,NW,321,0.0,5.0,70,0.00,,,0.00,,2013-07-13 10:22:00,
2013-07-13 05:32:00,73.0,63.0,29.65,NW,321,0.0,5.0,70,0.00,,,0.00,,2013-07-13 10:32:00,
2013-07-13 05:43:00,72.0,62.0,29.65,North,5,0.0,2.0,72,0.00,,,0.00,,2013-07-13 10:43:00,
2013-07-13 06:02:00,72.0,63.0,29.65,NNW,348,0.0,3.0,73,0.00,,,0.00,,2013-07-13 11:02:00,
2013-07-13 06:11:00,71.0,63.0,29.65,NNW,348,0.0,1.0,75,0.00,,,0.00,,2013-07-13 11:11:00,
2013-07-13 06:22:00,71.0,63.0,29.65,NNW,348,0.0,1.0,76,0.00,,,0.00,,2013-07-13 11:22:00,
2013-07-13 06:32:00,71.0,63.0,29.65,NNW,348,0.0,1.0,76,0.00,,,0.00,,2013-07-13 11:32:00,
2013-07-13 06:42:00,70.0,62.0,29.65,North,349,0.0,2.0,77,0.00,,,0.00,,2013-07-13 11:42:00,
2013-07-13 06:52:00,70.0,63.0,29.66,North,349,0.0,0.0,78,0.00,,,0.00,,2013-07-13 11:52:00,
2013-07-13 07:02:00,70.0,63.0,29.66,North,349,0.0,0.0,78,0.00,,,0.00,,2013-07-13 12:02:00,
2013-07-13 07:12:00,69.0,62.0,29.66,North,349,0.0,0.0,79,0.00,,,0.00,,2013-07-13 12:12:00,
2013-07-13 07:22:00,69.0,63.0,29.66,NNW,348,0.0,0.0,80,0.00,,,0.00,,2013-07-13 12:22:00,
2013-07-13 07:32:00,69.0,63.0,29.66,NNW,348,0.0,0.0,80,0.00,,,0.00,,2013-07-13 12:32:00,
2013-07-13 07:43:00,70.0,64.0,29.66,North,349,0.0,3.0,80,0.00,,,0.00,,2013-07-13 12:43:00,
2013-07-13 07:52:00,71.0,64.0,29.66,NNE,19,2.0,3.0,78,0.00,,,0.00,,2013-07-13 12:52:00,
2013-07-13 08:01:00,71.0,64.0,29.66,NNE,19,2.0,3.0,78,0.00,,,0.00,,2013-07-13 13:01:00,
2013-07-13 08:12:00,73.0,65.0,29.65,NNE,22,0.0,2.0,77,0.00,,,0.00,,2013-07-13 13:12:00,
2013-07-13 08:22:00,75.0,65.0,29.65,NNE,19,2.0,5.0,70,0.00,,,0.00,,2013-07-13 13:22:00,
2013-07-13 08:32:00,75.0,65.0,29.65,NNE,19,2.0,5.0,70,0.00,,,0.00,,2013-07-13 13:32:00,
2013-07-13 08:43:00,77.0,63.0,29.65,NNE,16,2.0,6.0,63,0.00,,,0.00,,2013-07-13 13:43:00,
2013-07-13 08:53:00,78.0,64.0,29.65,NNE,19,1.0,4.0,62,0.00,,,0.00,,2013-07-13 13:53:00,
2013-07-13 09:02:00,78.0,64.0,29.65,NNE,19,1.0,4.0,62,0.00,,,0.00,,2013-07-13 14:02:00,
2013-07-13 09:11:00,79.0,64.0,29.65,NW,306,0.0,5.0,61,0.00,,,0.00,,2013-07-13 14:11:00,
2013-07-13 09:22:00,79.0,64.0,29.65,NNW,342,1.0,4.0,61,0.00,,,0.00,,2013-07-13 14:22:00,
2013-07-13 09:32:00,79.0,64.0,29.65,NNW,342,1.0,4.0,61,0.00,,,0.00,,2013-07-13 14:32:00,
2013-07-13 09:43:00,79.0,64.0,29.66,NNW,342,0.0,2.0,60,0.00,,,0.00,,2013-07-13 14:43:00,
2013-07-13 09:53:00,80.0,65.0,29.65,WNW,288,0.0,2.0,61,0.00,,,0.00,,2013-07-13 14:53:00,
2013-07-13 10:02:00,80.0,65.0,29.65,WNW,288,0.0,2.0,61,0.00,,,0.00,,2013-07-13 15:02:00,
2013-07-13 10:12:00,81.0,65.0,29.65,NNW,342,0.0,4.0,58,0.00,,,0.00,,2013-07-13 15:12:00,
2013-07-13 10:22:00,82.0,65.0,29.64,NNW,329,1.0,5.0,56,0.00,,,0.00,,2013-07-13 15:22:00,
2013-07-13 10:33:00,82.0,65.0,29.64,NNW,329,1.0,5.0,56,0.00,,,0.00,,2013-07-13 15:33:00,
2013-07-13 10:43:00,84.0,65.0,29.65,North,350,1.0,6.0,53,0.00,,,0.00,,2013-07-13 15:43:00,
2013-07-13 10:53:00,85.0,68.0,29.64,NW,321,0.0,3.0,56,0.00,,,0.00,,2013-07-13 15:53:00,
2013-07-13 11:02:00,85.0,68.0,29.64,NW,321,0.0,3.0,56,0.00,,,0.00,,2013-07-13 16:02:00,
2013-07-13 11:11:00,86.0,67.0,29.65,NNW,346,0.0,3.0,53,0.00,,,0.00,,2013-07-13 16:11:00,
2013-07-13 11:22:00,88.0,66.0,29.65,SW,229,0.0,3.0,48,0.00,,,0.00,,2013-07-13 16:22:00,
2013-07-13 11:33:00,88.0,66.0,29.65,SW,229,0.0,3.0,48,0.00,,,0.00,,2013-07-13 16:33:00,
2013-07-13 11:43:00,88.0,65.0,29.65,South,185,1.0,4.0,47,0.00,,,0.00,,2013-07-13 16:43:00,
2013-07-13 11:53:00,88.0,65.0,29.65,SSW,204,1.0,3.0,47,0.00,,,0.00,,2013-07-13 16:53:00,
2013-07-13 12:01:00,88.0,65.0,29.65,SSW,204,1.0,3.0,47,0.00,,,0.00,,2013-07-13 17:01:00,
2013-07-13 12:12:00,89.0,63.0,29.65,NNE,24,0.0,4.0,42,0.00,,,0.00,,2013-07-13 17:12:00,
2013-07-13 12:22:00,89.0,63.0,29.65,NNE,24,0.0,4.0,42,0.00,,,0.00,,2013-07-13 17:22:00,
2013-07-13 12:33:00,91.0,65.0,29.65,NNW,327,1.0,4.0,42,0.00,,,0.00,,2013-07-13 17:33:00,
2013-07-13 12:43:00,91.0,65.0,29.65,South,191,2.0,6.0,42,0.00,,,0.00,,2013-07-13 17:43:00,
2013-07-13 12:52:00,92.0,64.0,29.64,SSE,165,3.0,7.0,40,0.00,,,0.00,,2013-07-13 17:52:00,
2013-07-13 13:01:00,92.0,64.0,29.64,SSE,165,3.0,7.0,40,0.00,,,0.00,,2013-07-13 18:01:00,
2013-07-13 13:11:00,92.0,64.0,29.64,NNW,335,2.0,5.0,40,0.00,,,0.00,,2013-07-13 18:11:00,
2013-07-13 13:21:00,94.0,64.0,29.64,NW,320,2.0,7.0,37,0.00,,,0.00,,2013-07-13 18:21:00,
2013-07-13 13:32:00,94.0,64.0,29.64,NW,320,2.0,7.0,37,0.00,,,0.00,,2013-07-13 18:32:00,
2013-07-13 13:43:00,95.0,65.0,29.63,North,355,1.0,8.0,37,0.00,,,0.00,,2013-07-13 18:43:00,
2013-07-13 13:53:00,95.0,64.0,29.63,NNW,335,3.0,7.0,36,0.00,,,0.00,,2013-07-13 18:53:00,
2013-07-13 14:02:00,95.0,64.0,29.63,NNW,335,3.0,7.0,36,0.00,,,0.00,,2013-07-13 19:02:00,
2013-07-13 14:11:00,96.0,65.0,29.63,NNW,340,0.0,7.0,37,0.00,,,0.00,,2013-07-13 19:11:00,
2013-07-13 14:22:00,97.0,63.0,29.62,NNW,344,2.0,7.0,33,0.00,,,0.00,,2013-07-13 19:22:00,
2013-07-13 14:32:00,97.0,63.0,29.62,NNW,344,2.0,7.0,33,0.00,,,0.00,,2013-07-13 19:32:00,
2013-07-13 14:44:00,97.0,65.0,29.62,NW,319,2.0,10.0,35,0.00,,,0.00,,2013-07-13 19:44:00,
2013-07-13 14:52:00,98.0,66.0,29.62,SSW,210,1.0,7.0,36,0.00,,,0.00,,2013-07-13 19:52:00,
2013-07-13 15:01:00,98.0,66.0,29.62,SSW,210,1.0,7.0,36,0.00,,,0.00,,2013-07-13 20:01:00,
2013-07-13 15:11:00,99.0,64.0,29.61,SSW,210,1.0,7.0,32,0.00,,,0.00,,2013-07-13 20:11:00,
2013-07-13 15:22:00,98.0,64.0,29.61,NNW,334,0.0,7.0,33,0.00,,,0.00,,2013-07-13 20:22:00,
2013-07-13 15:33:00,98.0,64.0,29.61,NNW,334,0.0,7.0,33,0.00,,,0.00,,2013-07-13 20:33:00,
2013-07-13 15:43:00,99.0,66.0,29.60,NNW,338,2.0,8.0,35,0.00,,,0.00,,2013-07-13 20:43:00,
2013-07-13 15:52:00,98.0,66.0,29.60,NNE,15,2.0,7.0,35,0.00,,,0.00,,2013-07-13 20:52:00,
2013-07-13 16:02:00,98.0,66.0,29.60,NNE,15,2.0,7.0,35,0.00,,,0.00,,2013-07-13 21:02:00,
2013-07-13 16:12:00,98.0,68.0,29.60,NE,42,0.0,10.0,38,0.00,,,0.00,,2013-07-13 21:12:00,
2013-07-13 16:32:00,98.0,67.0,29.59,NE,49,2.0,9.0,37,0.00,,,0.00,,2013-07-13 21:32:00,
2013-07-13 16:42:00,98.0,66.0,29.59,NNW,344,4.0,11.0,36,0.00,,,0.00,,2013-07-13 21:42:00,
2013-07-13 17:01:00,98.0,67.0,29.59,NNE,19,6.0,11.0,37,0.00,,,0.00,,2013-07-13 22:01:00,
2013-07-13 17:12:00,98.0,66.0,29.58,NNE,32,5.0,11.0,36,0.00,,,0.00,,2013-07-13 22:12:00,
2013-07-13 17:32:00,99.0,66.0,29.58,NNE,24,5.0,12.0,34,0.00,,,0.00,,2013-07-13 22:32:00,
2013-07-13 17:43:00,98.0,65.0,29.57,NE,37,5.0,11.0,34,0.00,,,0.00,,2013-07-13 22:43:00,
2013-07-13 18:01:00,98.0,66.0,29.57,North,9,5.0,14.0,35,0.00,,,0.00,,2013-07-13 23:01:00,
2013-07-13 18:11:00,99.0,66.0,29.57,NNE,26,4.0,9.0,35,0.00,,,0.00,,2013-07-13 23:11:00,
2013-07-13 18:32:00,98.0,65.0,29.57,NNE,27,7.0,14.0,34,0.00,,,0.00,,2013-07-13 23:32:00,
2013-07-13 18:42:00,98.0,66.0,29.56,NNE,15,5.0,11.0,35,0.00,,,0.00,,2013-07-13 23:42:00,
2013-07-13 18:53:00,98.0,66.0,29.56,NNE,15,5.0,11.0,35,0.00,,,0.00,,2013-07-13 23:53:00,
2013-07-13 19:01:00,98.0,67.0,29.56,NE,36,5.0,10.0,37,0.00,,,0.00,,2013-07-14 00:01:00,
2013-07-13 19:11:00,97.0,66.0,29.55,NNE,16,7.0,13.0,36,0.00,,,0.00,,2013-07-14 00:11:00,
2013-07-13 19:21:00,97.0,66.0,29.55,NNE,16,7.0,13.0,36,0.00,,,0.00,,2013-07-14 00:21:00,
2013-07-13 19:33:00,97.0,65.0,29.55,North,5,6.0,12.0,35,0.00,,,0.00,,2013-07-14 00:33:00,
2013-07-13 19:42:00,97.0,66.0,29.55,NE,38,6.0,12.0,37,0.00,,,0.00,,2013-07-14 00:42:00,
2013-07-13 19:53:00,97.0,66.0,29.55,NE,38,6.0,12.0,37,0.00,,,0.00,,2013-07-14 00:53:00,
2013-07-13 20:02:00,96.0,69.0,29.56,NNW,346,5.0,11.0,42,0.00,,,0.00,,2013-07-14 01:02:00,
2013-07-13 20:11:00,93.0,70.0,29.56,North,10,8.0,13.0,48,0.00,,,0.00,,2013-07-14 01:11:00,
2013-07-13 20:22:00,93.0,70.0,29.56,North,10,8.0,13.0,48,0.00,,,0.00,,2013-07-14 01:22:00,
2013-07-13 20:43:00,90.0,72.0,29.57,NNE,19,5.0,11.0,55,0.00,,,0.00,,2013-07-14 01:43:00,
2013-07-13 20:52:00,90.0,72.0,29.57,NNE,19,5.0,11.0,55,0.00,,,0.00,,2013-07-14 01:52:00,
2013-07-13 21:01:00,89.0,71.0,29.57,NE,38,5.0,9.0,56,0.00,,,0.00,,2013-07-14 02:01:00,
2013-07-13 21:11:00,88.0,71.0,29.57,NNE,15,5.0,12.0,58,0.00,,,0.00,,2013-07-14 02:11:00,
2013-07-13 21:22:00,88.0,71.0,29.57,NNE,15,5.0,12.0,58,0.00,,,0.00,,2013-07-14 02:22:00,
2013-07-13 21:32:00,87.0,71.0,29.56,NNE,24,4.0,9.0,59,0.00,,,0.00,,2013-07-14 02:32:00,
2013-07-13 21:43:00,86.0,69.0,29.57,NNE,16,3.0,9.0,58,0.00,,,0.00,,2013-07-14 02:43:00,
2013-07-13 21:53:00,86.0,69.0,29.57,NNE,16,3.0,9.0,58,0.00,,,0.00,,2013-07-14 02:53:00,
2013-07-13 22:01:00,85.0,68.0,29.57,NNE,21,4.0,7.0,56,0.00,,,0.00,,2013-07-14 03:01:00,
2013-07-13 22:11:00,84.0,68.0,29.57,NNE,19,5.0,8.0,58,0.00,,,0.00,,2013-07-14 03:11:00,
2013-07-13 22:22:00,84.0,68.0,29.57,NNE,19,5.0,8.0,58,0.00,,,0.00,,2013-07-14 03:22:00,
2013-07-13 22:32:00,83.0,68.0,29.57,NE,46,3.0,7.0,60,0.00,,,0.00,,2013-07-14 03:32:00,
2013-07-13 22:43:00,81.0,68.0,29.59,NW,325,1.0,3.0,64,0.00,,,0.00,,2013-07-14 03:43:00,
2013-07-13 22:53:00,81.0,68.0,29.59,NW,325,1.0,3.0,64,0.00,,,0.00,,2013-07-14 03:53:00,
2013-07-13 23:02:00,80.0,67.0,29.59,NW,317,2.0,4.0,65,0.00,,,0.00,,2013-07-14 04:02:00,
2013-07-13 23:11:00,80.0,68.0,29.60,NW,309,1.0,3.0,66,0.00,,,0.00,,2013-07-14 04:11:00,
2013-07-13 23:22:00,80.0,68.0,29.60,NW,309,1.0,3.0,66,0.00,,,0.00,,2013-07-14 04:22:00,
2013-07-13 23:32:00,80.0,68.0,29.61,NW,309,0.0,3.0,66,0.00,,,0.00,,2013-07-14 04:32:00,
2013-07-13 23:42:00,80.0,68.0,29.61,NW,310,1.0,3.0,66,0.00,,,0.00,,2013-07-14 04:42:00,
2013-07-13 23:53:00,80.0,68.0,29.61,NW,310,1.0,3.0,66,0.00,,,0.00,,2013-07-14 04:53:00,